RYR66GL LIMC-LIEA
Flight info
| Callsign | RYR66GL |
|---|---|
| Flight time | 1h 0m |
| Altitude | 33000 |
| Route | LAGEN DCT ERTEV DCT TORTU DCT OKROK DCT AJO M194 REVDO |
| Aircraft | B738/M-SABDFGRVYL/LB2 |
Departure
| Time | 2026-05-05 13:00 |
|---|---|
| Airport | Milan Malpensa International Airport (LIMC) |
Arrival
| Time | 2026-05-05 14:00 |
|---|---|
| Airport | Alghero-Fertilia Airport (LIEA) |
| Time | Latitude | Longitude | Altitude | Speed | Heading |
|---|---|---|---|---|---|
| 2026-05-05 12:22 | 45.62820 | 8.71661 | 743 ft | 0 kts | 259° |
| 2026-05-05 12:42 | 45.62822 | 8.71681 | 743 ft | 2 kts | 259° |
| 2026-05-05 12:42 | 45.62825 | 8.71701 | 743 ft | 2 kts | 259° |
| 2026-05-05 12:42 | 45.62828 | 8.71722 | 743 ft | 2 kts | 259° |
| 2026-05-05 12:43 | 45.62831 | 8.71743 | 743 ft | 2 kts | 259° |
| 2026-05-05 12:43 | 45.62833 | 8.71757 | 743 ft | 2 kts | 257° |
| 2026-05-05 12:43 | 45.62841 | 8.71773 | 743 ft | 2 kts | 205° |
| 2026-05-05 12:43 | 45.62853 | 8.71777 | 743 ft | 0 kts | 174° |
| 2026-05-05 12:44 | 45.62859 | 8.71775 | 743 ft | 1 kts | 169° |
| 2026-05-05 12:44 | 45.62861 | 8.71774 | 743 ft | 0 kts | 169° |
| 2026-05-05 12:45 | 45.62859 | 8.71775 | 743 ft | 1 kts | 169° |
| 2026-05-05 12:45 | 45.62804 | 8.71789 | 743 ft | 14 kts | 171° |
| 2026-05-05 12:46 | 45.62701 | 8.71819 | 740 ft | 15 kts | 168° |
| 2026-05-05 12:46 | 45.62583 | 8.71852 | 739 ft | 19 kts | 169° |
| 2026-05-05 12:46 | 45.62447 | 8.71890 | 739 ft | 19 kts | 169° |
| 2026-05-05 12:46 | 45.62305 | 8.71925 | 736 ft | 22 kts | 170° |
| 2026-05-05 12:47 | 45.62145 | 8.71973 | 732 ft | 24 kts | 170° |
| 2026-05-05 12:47 | 45.61972 | 8.72022 | 726 ft | 26 kts | 168° |
| 2026-05-05 12:47 | 45.61788 | 8.72072 | 721 ft | 27 kts | 170° |
| 2026-05-05 12:47 | 45.61599 | 8.72122 | 716 ft | 25 kts | 169° |
| 2026-05-05 12:48 | 45.61423 | 8.72172 | 710 ft | 25 kts | 168° |
| 2026-05-05 12:48 | 45.61238 | 8.72223 | 702 ft | 28 kts | 169° |
| 2026-05-05 12:48 | 45.61036 | 8.72279 | 695 ft | 30 kts | 169° |
| 2026-05-05 12:48 | 45.60825 | 8.72339 | 691 ft | 31 kts | 168° |
| 2026-05-05 12:49 | 45.60698 | 8.72379 | 691 ft | 14 kts | 162° |
| 2026-05-05 12:49 | 45.60640 | 8.72510 | 691 ft | 17 kts | 99° |
| 2026-05-05 12:49 | 45.60629 | 8.72687 | 691 ft | 18 kts | 96° |
| 2026-05-05 12:49 | 45.60613 | 8.72875 | 692 ft | 19 kts | 98° |
| 2026-05-05 12:50 | 45.60596 | 8.73070 | 690 ft | 19 kts | 95° |
| 2026-05-05 12:50 | 45.60620 | 8.73255 | 689 ft | 19 kts | 50° |
| 2026-05-05 12:50 | 45.60744 | 8.73340 | 686 ft | 20 kts | 21° |
| 2026-05-05 12:50 | 45.60879 | 8.73409 | 684 ft | 19 kts | 9° |
| 2026-05-05 12:51 | 45.61012 | 8.73378 | 684 ft | 18 kts | 348° |
| 2026-05-05 12:51 | 45.61133 | 8.73343 | 687 ft | 16 kts | 349° |
| 2026-05-05 12:51 | 45.61236 | 8.73316 | 689 ft | 13 kts | 350° |
| 2026-05-05 12:51 | 45.61322 | 8.73293 | 690 ft | 12 kts | 350° |
| 2026-05-05 12:52 | 45.61409 | 8.73270 | 693 ft | 11 kts | 349° |
| 2026-05-05 12:52 | 45.61475 | 8.73251 | 695 ft | 8 kts | 348° |
| 2026-05-05 12:52 | 45.61535 | 8.73232 | 697 ft | 8 kts | 347° |
| 2026-05-05 12:52 | 45.61606 | 8.73244 | 698 ft | 13 kts | 39° |
| 2026-05-05 12:53 | 45.61633 | 8.73366 | 697 ft | 13 kts | 84° |
| 2026-05-05 12:53 | 45.61623 | 8.73462 | 696 ft | 0 kts | 122° |
| 2026-05-05 12:56 | 45.61619 | 8.73471 | 696 ft | 4 kts | 122° |
| 2026-05-05 12:56 | 45.61600 | 8.73515 | 696 ft | 5 kts | 117° |
| 2026-05-05 12:56 | 45.61589 | 8.73569 | 696 ft | 5 kts | 96° |
| 2026-05-05 12:56 | 45.61588 | 8.73598 | 696 ft | 0 kts | 89° |
| 2026-05-05 12:58 | 45.61588 | 8.73601 | 696 ft | 1 kts | 89° |
| 2026-05-05 12:59 | 45.61607 | 8.73697 | 697 ft | 22 kts | 52° |
| 2026-05-05 12:59 | 45.61770 | 8.73695 | 700 ft | 42 kts | 350° |
| 2026-05-05 12:59 | 45.62312 | 8.73549 | 711 ft | 114 kts | 349° |
| 2026-05-05 13:00 | 45.64386 | 8.72966 | 1728 ft | 161 kts | 350° |
| 2026-05-05 13:00 | 45.65566 | 8.73090 | 2280 ft | 182 kts | 26° |
| 2026-05-05 13:01 | 45.68309 | 8.77420 | 4149 ft | 210 kts | 46° |
| 2026-05-05 13:01 | 45.69329 | 8.78879 | 4918 ft | 212 kts | 47° |
| 2026-05-05 13:01 | 45.70369 | 8.80370 | 5639 ft | 217 kts | 47° |
| 2026-05-05 13:01 | 45.71255 | 8.82082 | 6344 ft | 218 kts | 71° |
| 2026-05-05 13:02 | 45.71430 | 8.84235 | 6913 ft | 225 kts | 102° |
| 2026-05-05 13:02 | 45.70743 | 8.86252 | 7367 ft | 237 kts | 134° |
| 2026-05-05 13:02 | 45.69343 | 8.87528 | 7872 ft | 250 kts | 163° |
| 2026-05-05 13:02 | 45.67575 | 8.87649 | 8392 ft | 265 kts | 191° |
| 2026-05-05 13:03 | 45.65909 | 8.86496 | 9067 ft | 276 kts | 219° |
| 2026-05-05 13:03 | 45.64758 | 8.84296 | 9932 ft | 282 kts | 242° |
| 2026-05-05 13:03 | 45.64047 | 8.81666 | 10593 ft | 291 kts | 249° |
| 2026-05-05 13:03 | 45.63397 | 8.78849 | 11093 ft | 306 kts | 249° |
| 2026-05-05 13:04 | 45.62731 | 8.75912 | 11588 ft | 320 kts | 250° |
| 2026-05-05 13:04 | 45.62039 | 8.72901 | 12284 ft | 327 kts | 250° |
| 2026-05-05 13:04 | 45.61326 | 8.69833 | 13160 ft | 328 kts | 250° |
| 2026-05-05 13:04 | 45.60457 | 8.66838 | 13952 ft | 329 kts | 238° |
| 2026-05-05 13:05 | 45.58965 | 8.64366 | 14668 ft | 330 kts | 222° |
| 2026-05-05 13:05 | 45.57172 | 8.62350 | 14958 ft | 335 kts | 216° |
| 2026-05-05 13:05 | 45.55223 | 8.60499 | 15846 ft | 335 kts | 213° |
| 2026-05-05 13:05 | 45.53278 | 8.58755 | 16755 ft | 335 kts | 213° |
| 2026-05-05 13:06 | 45.51284 | 8.56998 | 17560 ft | 337 kts | 213° |
| 2026-05-05 13:06 | 45.49287 | 8.55254 | 18299 ft | 340 kts | 213° |
| 2026-05-05 13:06 | 45.47267 | 8.53490 | 18998 ft | 344 kts | 213° |
| 2026-05-05 13:06 | 45.45235 | 8.51718 | 19705 ft | 347 kts | 213° |
| 2026-05-05 13:07 | 45.43187 | 8.49934 | 20447 ft | 349 kts | 213° |
| 2026-05-05 13:07 | 45.41118 | 8.48133 | 21098 ft | 352 kts | 213° |
| 2026-05-05 13:07 | 45.39029 | 8.46317 | 21754 ft | 355 kts | 213° |
| 2026-05-05 13:07 | 45.36929 | 8.44492 | 22360 ft | 358 kts | 213° |
| 2026-05-05 13:08 | 45.34795 | 8.42645 | 23020 ft | 360 kts | 213° |
| 2026-05-05 13:08 | 45.32653 | 8.40803 | 23643 ft | 363 kts | 213° |
| 2026-05-05 13:08 | 45.30493 | 8.38953 | 24272 ft | 365 kts | 213° |
| 2026-05-05 13:08 | 45.28315 | 8.37114 | 24892 ft | 367 kts | 212° |
| 2026-05-05 13:09 | 45.26107 | 8.35288 | 25409 ft | 370 kts | 212° |
| 2026-05-05 13:09 | 45.23871 | 8.33433 | 25969 ft | 372 kts | 212° |
| 2026-05-05 13:09 | 45.21640 | 8.31583 | 26576 ft | 373 kts | 212° |
| 2026-05-05 13:09 | 45.19418 | 8.29744 | 27166 ft | 374 kts | 212° |
| 2026-05-05 13:10 | 45.17164 | 8.27888 | 27612 ft | 378 kts | 212° |
| 2026-05-05 13:10 | 45.14886 | 8.26028 | 28123 ft | 380 kts | 212° |
| 2026-05-05 13:10 | 45.12600 | 8.24177 | 28576 ft | 383 kts | 213° |
| 2026-05-05 13:10 | 45.10235 | 8.22419 | 29090 ft | 386 kts | 206° |
| 2026-05-05 13:11 | 45.07632 | 8.21557 | 29728 ft | 393 kts | 189° |
| 2026-05-05 13:11 | 45.04912 | 8.21903 | 30564 ft | 397 kts | 175° |
| 2026-05-05 13:11 | 45.02255 | 8.22929 | 31349 ft | 394 kts | 169° |
| 2026-05-05 13:11 | 44.99672 | 8.24156 | 31867 ft | 394 kts | 168° |
| 2026-05-05 13:12 | 44.97082 | 8.25452 | 32288 ft | 395 kts | 167° |
| 2026-05-05 13:12 | 44.94486 | 8.26760 | 32781 ft | 394 kts | 167° |
| 2026-05-05 13:12 | 44.91882 | 8.28064 | 32954 ft | 397 kts | 167° |
| 2026-05-05 13:12 | 44.89259 | 8.29368 | 32962 ft | 395 kts | 167° |
| 2026-05-05 13:13 | 44.84002 | 8.31960 | 32966 ft | 407 kts | 167° |
| 2026-05-05 13:13 | 44.78503 | 8.34627 | 32963 ft | 425 kts | 167° |
| 2026-05-05 13:14 | 44.72803 | 8.37369 | 32961 ft | 433 kts | 167° |
| 2026-05-05 13:14 | 44.67147 | 8.40090 | 32960 ft | 432 kts | 167° |
| 2026-05-05 13:15 | 44.61467 | 8.42827 | 32960 ft | 432 kts | 167° |
| 2026-05-05 13:15 | 44.55754 | 8.45580 | 32962 ft | 433 kts | 167° |
| 2026-05-05 13:16 | 44.50055 | 8.48326 | 32962 ft | 434 kts | 167° |
| 2026-05-05 13:16 | 44.44356 | 8.51076 | 32963 ft | 434 kts | 167° |
| 2026-05-05 13:17 | 44.38614 | 8.53843 | 32964 ft | 435 kts | 167° |
| 2026-05-05 13:17 | 44.32901 | 8.56598 | 32959 ft | 435 kts | 167° |
| 2026-05-05 13:18 | 44.27193 | 8.59356 | 32956 ft | 434 kts | 167° |
| 2026-05-05 13:18 | 44.21487 | 8.62117 | 32954 ft | 434 kts | 167° |
| 2026-05-05 13:19 | 44.15752 | 8.64911 | 32949 ft | 435 kts | 167° |
| 2026-05-05 13:19 | 44.10036 | 8.67711 | 32946 ft | 434 kts | 168° |
| 2026-05-05 13:20 | 44.04344 | 8.70496 | 32938 ft | 435 kts | 167° |
| 2026-05-05 13:20 | 43.98614 | 8.73301 | 32943 ft | 436 kts | 167° |
| 2026-05-05 13:21 | 43.92903 | 8.76085 | 32944 ft | 436 kts | 167° |
| 2026-05-05 13:21 | 43.87199 | 8.78870 | 32936 ft | 437 kts | 168° |
| 2026-05-05 13:22 | 43.81473 | 8.81677 | 32925 ft | 438 kts | 167° |
| 2026-05-05 13:22 | 43.75732 | 8.84510 | 32929 ft | 438 kts | 167° |
| 2026-05-05 13:23 | 43.70005 | 8.87341 | 32929 ft | 437 kts | 167° |
| 2026-05-05 13:23 | 43.64279 | 8.90173 | 32937 ft | 438 kts | 167° |
| 2026-05-05 13:24 | 43.58520 | 8.93036 | 32935 ft | 439 kts | 167° |
| 2026-05-05 13:24 | 43.52784 | 8.95902 | 32934 ft | 438 kts | 167° |
| 2026-05-05 13:25 | 43.46968 | 8.97960 | 32939 ft | 428 kts | 180° |
| 2026-05-05 13:25 | 43.41078 | 8.98526 | 32937 ft | 420 kts | 185° |
| 2026-05-05 13:26 | 43.35232 | 8.98642 | 32939 ft | 423 kts | 186° |
| 2026-05-05 13:26 | 43.29346 | 8.98696 | 32938 ft | 421 kts | 186° |
| 2026-05-05 13:27 | 43.23589 | 8.98182 | 32940 ft | 409 kts | 200° |
| 2026-05-05 13:27 | 43.18224 | 8.95763 | 32943 ft | 405 kts | 205° |
| 2026-05-05 13:28 | 43.12817 | 8.93673 | 32946 ft | 405 kts | 198° |
| 2026-05-05 13:28 | 43.10080 | 8.92997 | 32945 ft | 394 kts | 195° |
| 2026-05-05 13:28 | 43.07375 | 8.92475 | 32947 ft | 393 kts | 194° |
| 2026-05-05 13:29 | 43.01915 | 8.91644 | 32947 ft | 399 kts | 192° |
| 2026-05-05 13:29 | 42.96400 | 8.90945 | 32944 ft | 399 kts | 192° |
| 2026-05-05 13:30 | 42.90864 | 8.90294 | 32944 ft | 400 kts | 192° |
| 2026-05-05 13:30 | 42.85299 | 8.89656 | 32944 ft | 399 kts | 192° |
| 2026-05-05 13:31 | 42.79760 | 8.89022 | 32950 ft | 402 kts | 192° |
| 2026-05-05 13:31 | 42.74226 | 8.88391 | 32952 ft | 400 kts | 192° |
| 2026-05-05 13:32 | 42.68705 | 8.87761 | 32963 ft | 401 kts | 192° |
| 2026-05-05 13:32 | 42.63135 | 8.87126 | 32973 ft | 402 kts | 192° |
| 2026-05-05 13:33 | 42.57584 | 8.86497 | 32988 ft | 401 kts | 192° |
| 2026-05-05 13:33 | 42.52055 | 8.85872 | 33000 ft | 393 kts | 192° |
| 2026-05-05 13:34 | 42.49387 | 8.85581 | 32936 ft | 379 kts | 192° |
| 2026-05-05 13:34 | 42.46782 | 8.85297 | 32625 ft | 371 kts | 193° |
| 2026-05-05 13:34 | 42.44266 | 8.85017 | 32310 ft | 364 kts | 193° |
| 2026-05-05 13:34 | 42.41737 | 8.84731 | 31876 ft | 360 kts | 193° |
| 2026-05-05 13:35 | 42.39290 | 8.84450 | 31433 ft | 356 kts | 193° |
| 2026-05-05 13:35 | 42.36808 | 8.84165 | 30973 ft | 353 kts | 193° |
| 2026-05-05 13:35 | 42.34378 | 8.83886 | 30521 ft | 350 kts | 192° |
| 2026-05-05 13:35 | 42.31985 | 8.83614 | 30075 ft | 347 kts | 192° |
| 2026-05-05 13:36 | 42.29598 | 8.83346 | 29623 ft | 344 kts | 192° |
| 2026-05-05 13:36 | 42.27233 | 8.83080 | 29184 ft | 340 kts | 192° |
| 2026-05-05 13:36 | 42.24890 | 8.82815 | 28749 ft | 337 kts | 192° |
| 2026-05-05 13:36 | 42.22550 | 8.82551 | 28310 ft | 334 kts | 192° |
| 2026-05-05 13:37 | 42.20272 | 8.82292 | 27891 ft | 331 kts | 192° |
| 2026-05-05 13:37 | 42.17999 | 8.82035 | 27468 ft | 328 kts | 192° |
| 2026-05-05 13:37 | 42.15716 | 8.81778 | 27035 ft | 325 kts | 192° |
| 2026-05-05 13:37 | 42.13471 | 8.81527 | 26608 ft | 323 kts | 192° |
| 2026-05-05 13:38 | 42.11269 | 8.81281 | 26190 ft | 321 kts | 191° |
| 2026-05-05 13:38 | 42.09048 | 8.81033 | 25773 ft | 318 kts | 191° |
| 2026-05-05 13:38 | 42.06867 | 8.80788 | 25364 ft | 316 kts | 191° |
| 2026-05-05 13:38 | 42.04688 | 8.80544 | 24953 ft | 313 kts | 191° |
| 2026-05-05 13:39 | 42.02530 | 8.80304 | 24548 ft | 311 kts | 191° |
| 2026-05-05 13:39 | 42.00373 | 8.80064 | 24138 ft | 309 kts | 191° |
| 2026-05-05 13:39 | 41.98212 | 8.79819 | 23735 ft | 318 kts | 191° |
| 2026-05-05 13:39 | 41.95978 | 8.79560 | 23290 ft | 330 kts | 190° |
| 2026-05-05 13:40 | 41.93685 | 8.79303 | 23000 ft | 324 kts | 190° |
| 2026-05-05 13:40 | 41.91478 | 8.79064 | 22978 ft | 319 kts | 190° |
| 2026-05-05 13:40 | 41.89234 | 8.78816 | 22678 ft | 328 kts | 190° |
| 2026-05-05 13:40 | 41.86945 | 8.78560 | 22166 ft | 329 kts | 190° |
| 2026-05-05 13:41 | 41.84667 | 8.78309 | 21655 ft | 329 kts | 189° |
| 2026-05-05 13:41 | 41.82413 | 8.78060 | 21145 ft | 328 kts | 189° |
| 2026-05-05 13:41 | 41.80136 | 8.77809 | 20630 ft | 328 kts | 189° |
| 2026-05-05 13:41 | 41.77875 | 8.77558 | 20122 ft | 327 kts | 189° |
| 2026-05-05 13:42 | 41.75623 | 8.77265 | 19613 ft | 325 kts | 191° |
| 2026-05-05 13:42 | 41.73387 | 8.76863 | 19095 ft | 324 kts | 192° |
| 2026-05-05 13:42 | 41.71167 | 8.76414 | 18594 ft | 323 kts | 193° |
| 2026-05-05 13:42 | 41.68967 | 8.75957 | 18089 ft | 322 kts | 192° |
| 2026-05-05 13:43 | 41.66750 | 8.75505 | 17598 ft | 321 kts | 192° |
| 2026-05-05 13:43 | 41.64549 | 8.75067 | 17099 ft | 320 kts | 192° |
| 2026-05-05 13:43 | 41.62352 | 8.74638 | 16605 ft | 319 kts | 192° |
| 2026-05-05 13:43 | 41.60178 | 8.74218 | 16105 ft | 318 kts | 192° |
| 2026-05-05 13:44 | 41.57991 | 8.73799 | 15600 ft | 317 kts | 192° |
| 2026-05-05 13:44 | 41.55810 | 8.73383 | 15105 ft | 316 kts | 192° |
| 2026-05-05 13:44 | 41.53638 | 8.72967 | 14606 ft | 315 kts | 192° |
| 2026-05-05 13:44 | 41.51497 | 8.72557 | 14115 ft | 314 kts | 192° |
| 2026-05-05 13:45 | 41.49338 | 8.72142 | 13608 ft | 312 kts | 192° |
| 2026-05-05 13:45 | 41.47188 | 8.71724 | 13118 ft | 311 kts | 192° |
| 2026-05-05 13:45 | 41.45076 | 8.71313 | 12641 ft | 310 kts | 192° |
| 2026-05-05 13:45 | 41.42942 | 8.70900 | 12138 ft | 309 kts | 192° |
| 2026-05-05 13:46 | 41.40816 | 8.70488 | 11654 ft | 308 kts | 192° |
| 2026-05-05 13:46 | 41.38699 | 8.70080 | 11165 ft | 307 kts | 192° |
| 2026-05-05 13:46 | 41.36591 | 8.69675 | 10684 ft | 306 kts | 192° |
| 2026-05-05 13:46 | 41.34507 | 8.69272 | 10193 ft | 305 kts | 193° |
| 2026-05-05 13:47 | 41.32473 | 8.68596 | 9709 ft | 301 kts | 202° |
| 2026-05-05 13:47 | 41.30525 | 8.67566 | 9216 ft | 298 kts | 207° |
| 2026-05-05 13:47 | 41.28666 | 8.66444 | 8732 ft | 297 kts | 207° |
| 2026-05-05 13:47 | 41.26778 | 8.65290 | 8231 ft | 296 kts | 207° |
| 2026-05-05 13:48 | 41.24900 | 8.64167 | 7750 ft | 295 kts | 206° |
| 2026-05-05 13:48 | 41.23046 | 8.63082 | 7299 ft | 293 kts | 206° |
| 2026-05-05 13:48 | 41.21209 | 8.62025 | 6952 ft | 283 kts | 206° |
| 2026-05-05 13:48 | 41.19436 | 8.61004 | 6673 ft | 270 kts | 206° |
| 2026-05-05 13:49 | 41.17755 | 8.60036 | 6454 ft | 258 kts | 206° |
| 2026-05-05 13:49 | 41.16120 | 8.59086 | 6236 ft | 251 kts | 206° |
| 2026-05-05 13:49 | 41.14540 | 8.58168 | 6020 ft | 245 kts | 206° |
| 2026-05-05 13:49 | 41.13015 | 8.57287 | 5802 ft | 240 kts | 206° |
| 2026-05-05 13:50 | 41.11490 | 8.56407 | 5589 ft | 238 kts | 206° |
| 2026-05-05 13:50 | 41.09974 | 8.55533 | 5373 ft | 237 kts | 206° |
| 2026-05-05 13:50 | 41.08452 | 8.54656 | 5141 ft | 237 kts | 206° |
| 2026-05-05 13:50 | 41.06950 | 8.53791 | 4921 ft | 237 kts | 206° |
| 2026-05-05 13:51 | 41.05438 | 8.52925 | 4704 ft | 236 kts | 205° |
| 2026-05-05 13:51 | 41.03924 | 8.52095 | 4485 ft | 234 kts | 204° |
| 2026-05-05 13:51 | 41.02428 | 8.51311 | 4272 ft | 229 kts | 203° |
| 2026-05-05 13:51 | 41.00958 | 8.50543 | 4051 ft | 225 kts | 204° |
| 2026-05-05 13:52 | 40.99527 | 8.49781 | 3872 ft | 218 kts | 204° |
| 2026-05-05 13:52 | 40.98141 | 8.49042 | 3729 ft | 209 kts | 204° |
| 2026-05-05 13:52 | 40.96820 | 8.48341 | 3581 ft | 202 kts | 203° |
| 2026-05-05 13:52 | 40.95531 | 8.47663 | 3437 ft | 195 kts | 203° |
| 2026-05-05 13:53 | 40.94290 | 8.47013 | 3293 ft | 192 kts | 203° |
| 2026-05-05 13:53 | 40.93033 | 8.46366 | 3146 ft | 192 kts | 203° |
| 2026-05-05 13:53 | 40.91790 | 8.45722 | 3012 ft | 191 kts | 203° |
| 2026-05-05 13:53 | 40.90562 | 8.45078 | 2977 ft | 187 kts | 203° |
| 2026-05-05 13:54 | 40.89364 | 8.44482 | 2975 ft | 181 kts | 199° |
| 2026-05-05 13:54 | 40.88157 | 8.43965 | 2990 ft | 181 kts | 201° |
| 2026-05-05 13:54 | 40.86988 | 8.43352 | 2978 ft | 180 kts | 205° |
| 2026-05-05 13:54 | 40.85853 | 8.42686 | 2974 ft | 180 kts | 206° |
| 2026-05-05 13:55 | 40.84693 | 8.41991 | 2972 ft | 182 kts | 206° |
| 2026-05-05 13:55 | 40.83530 | 8.41295 | 2976 ft | 184 kts | 206° |
| 2026-05-05 13:55 | 40.82357 | 8.40587 | 2978 ft | 186 kts | 206° |
| 2026-05-05 13:55 | 40.81171 | 8.39872 | 2975 ft | 189 kts | 205° |
| 2026-05-05 13:56 | 40.79969 | 8.39150 | 2969 ft | 190 kts | 205° |
| 2026-05-05 13:56 | 40.78808 | 8.38452 | 2979 ft | 174 kts | 205° |
| 2026-05-05 13:56 | 40.77727 | 8.37801 | 2927 ft | 171 kts | 206° |
| 2026-05-05 13:56 | 40.76642 | 8.37147 | 2713 ft | 175 kts | 205° |
| 2026-05-05 13:57 | 40.75529 | 8.36477 | 2468 ft | 176 kts | 205° |
| 2026-05-05 13:57 | 40.74416 | 8.35807 | 2228 ft | 172 kts | 205° |
| 2026-05-05 13:57 | 40.73346 | 8.35163 | 2000 ft | 169 kts | 205° |
| 2026-05-05 13:57 | 40.72282 | 8.34519 | 1776 ft | 166 kts | 205° |
| 2026-05-05 13:58 | 40.71270 | 8.33906 | 1579 ft | 151 kts | 204° |
| 2026-05-05 13:58 | 40.70324 | 8.33337 | 1367 ft | 150 kts | 204° |
| 2026-05-05 13:58 | 40.69386 | 8.32773 | 1168 ft | 147 kts | 204° |
| 2026-05-05 13:58 | 40.68460 | 8.32219 | 976 ft | 144 kts | 204° |
| 2026-05-05 13:59 | 40.66659 | 8.31136 | 603 ft | 141 kts | 203° |
| 2026-05-05 13:59 | 40.65770 | 8.30594 | 418 ft | 139 kts | 204° |
| 2026-05-05 14:00 | 40.64090 | 8.29600 | 113 ft | 120 kts | 204° |
| 2026-05-05 14:00 | 40.63629 | 8.29319 | 88 ft | 93 kts | 203° |
| 2026-05-05 14:00 | 40.63169 | 8.29053 | 85 ft | 44 kts | 202° |
| 2026-05-05 14:00 | 40.62840 | 8.28857 | 81 ft | 36 kts | 206° |
| 2026-05-05 14:01 | 40.62652 | 8.28836 | 81 ft | 16 kts | 167° |
| 2026-05-05 14:01 | 40.62615 | 8.28942 | 81 ft | 15 kts | 52° |
| 2026-05-05 14:01 | 40.62700 | 8.29013 | 81 ft | 14 kts | 28° |
| 2026-05-05 14:01 | 40.62789 | 8.29063 | 82 ft | 13 kts | 23° |
| 2026-05-05 14:02 | 40.62851 | 8.29164 | 85 ft | 17 kts | 73° |
| 2026-05-05 14:02 | 40.62911 | 8.29283 | 85 ft | 16 kts | 25° |
| 2026-05-05 14:02 | 40.62976 | 8.29347 | 85 ft | 9 kts | 94° |
| 2026-05-05 14:02 | 40.62966 | 8.29387 | 86 ft | 0 kts | 115° |